ADDS METAR Data INFO
IDs: Format: Raw Decoded Include TAF

Data at: 0025 UTC 11 Dec 2017

KTOL 102352Z 20005KT 10SM OVC033 M02/M06 A2995 RMK AO2 SLP151 T10171056 11017 21033 51017
KTOL 102252Z 21005KT 10SM OVC033 M02/M06 A2995 RMK AO2 SLP149 T10171056
KTOL 102152Z 23007KT 10SM OVC034 M02/M06 A2993 RMK AO2 SLP145 T10171061
KTOL 102052Z 23009KT 10SM OVC060 M02/M07 A2990 RMK AO2 SLP134 T10171067 55009
KTOL 101952Z 22010KT 10SM OVC055 M02/M07 A2990 RMK AO2 SLP132 T10221067
KTOL 101852Z 22011KT 10SM OVC055 M03/M07 A2992 RMK AO2 SLP139 T10281072
KTOL 101752Z 21011G20KT 10SM SCT065 BKN090 OVC120 M03/M07 A2993 RMK AO2 SLP144 T10331072 11033 21056 58020
KTOL 101652Z 23012KT 10SM FEW055 SCT080 OVC095 M04/M08 A2996 RMK AO2 SLP154 T10391083
KTOL 101552Z 22009KT 10SM OVC065 M05/M08 A2999 RMK AO2 SLP164 T10501083
KTOL 101452Z 24014KT 10SM OVC075 M06/M09 A2999 RMK AO2 SLP166 T10561089 51006
KTOL 101352Z 24015KT 10SM OVC100 M06/M08 A2999 RMK AO2 SLP165 T10561083
KTOL 101252Z 24012KT 10SM BKN100 BKN120 M04/M07 A2998 RMK AO2 SLP161 T10441072
KTOL 101152Z 24015KT 10SM FEW015 SCT120 M03/M06 A2997 RMK AO2 SLP159 70014 T10331056 11028 21072 53002
KTOL 101141Z 23011KT 10SM SCT013 M03/M05 A2997 RMK AO2 T10331050
KTOL 101111Z 23009KT 9SM BKN013 BKN021 OVC033 M03/M04 A2997 RMK AO2 T10331044
KTOL 101052Z 22008KT 8SM FEW020 OVC037 M03/M04 A2996 RMK AO2 SLP154 T10331044
KTOL 100952Z 22008KT 7SM FEW027 BKN048 M04/M05 A2995 RMK AO2 SLP152 T10391050
KTOL 100852Z 24007KT 9SM OVC055 M04/M05 A2997 RMK AO2 SLP156 T10391050 50003
KTOL 100752Z 26007KT 10SM OVC060 M04/M06 A2997 RMK AO2 SLP159 T10391056
KTOL 100652Z 26007KT 10SM CLR M04/M06 A2996 RMK AO2 SLP156 T10441056
KTOL 100552Z 28009KT 10SM BKN030 M03/M06 A2996 RMK AO2 SLP152 60000 T10281056 11017 21033 51017
KTOL 100452Z 28008KT 10SM BKN030 OVC037 M02/M04 A2994 RMK AO2 SLP148 T10221044 410221056
KTOL 100352Z 29007KT 10SM OVC035 M02/M04 A2993 RMK AO2 SLP142 T10221044
KTOL 100252Z 30006KT 10SM FEW033 OVC041 M02/M04 A2991 RMK AO2 SLP136 60000 T10221044 51021
KTOL 100241Z 30007KT 10SM FEW020 BKN034 OVC041 M02/M04 A2990 RMK AO2 T10221044
KTOL 100152Z 31006KT 10SM OVC026 M03/M04 A2989 RMK AO2 SLP130 T10281044
KTOL 100120Z 30005KT 9SM OVC032 M03/M04 A2987 RMK AO2 T10331044
KTOL 100052Z 30005KT 7SM OVC026 M03/M03 A2986 RMK AO2 SNE25 SLP122 P0000 T10281033
KTOL 100033Z 30004KT 6SM BR FEW020 OVC028 M03/M03 A2986 RMK AO2 SNE25 P0000 T10281033
KTOL 092352Z 30004KT 3SM -SN BR SCT030 OVC039 M03/M03 A2984 RMK AO2 SNB06 SLP114 P0001 60002 T10331033 11022 21033 53020
KTOL 092322Z 30004KT 2 1/2SM -SN BR BKN026 BKN032 OVC040 M03/M03 A2983 RMK AO2 SNB06 P0000 T10281033
KTOL 092252Z 30003KT 9SM BKN024 OVC041 M03/M03 A2981 RMK AO2 SNE2153 SLP105 P0000 T10281033
KTOL 092152Z 00000KT 5SM -SN BR OVC015 M02/M04 A2978 RMK AO2 SLP093 P0000 T10221039
KTOL 092150Z 00000KT 4SM -SN BR OVC015 M02/M04 A2978 RMK AO2 P0000
KTOL 092122Z 00000KT 2 1/2SM -SN BR BKN015 OVC021 M02/M04 A2977 RMK AO2 P0000 T10221039
KTOL 092109Z 00000KT 4SM -SN BR FEW009 BKN013 OVC021 M02/M04 A2976 RMK AO2 P0000 T10221039
KTOL 092052Z 00000KT 4SM -SN BR SCT012 BKN021 OVC038 M02/M04 A2975 RMK AO2 SLP082 P0001 60001 T10221039 51013
KTOL 092050Z 00000KT 3SM -SN BR SCT012 BKN023 OVC038 M02/M04 A2975 RMK AO2 P0001
KTOL 092038Z 00000KT 2SM -SN BR FEW016 BKN023 OVC037 M03/M03 A2974 RMK AO2 P0001 T10281033
KTOL 092035Z 00000KT 1 1/4SM -SN BR SCT016 BKN021 OVC037 M03/M03 A2974 RMK AO2 P0001 T10281033
KTOL 092021Z 21004KT 3/4SM -SN BR BKN016 OVC031 M03/M04 A2974 RMK AO2 P0000 T10281039 RVRNO
KTOL 092015Z 21005KT 1 3/4SM -SN BR BKN016 OVC031 M02/M04 A2973 RMK AO2 P0000 T10221044
KTOL 091952Z 21006KT 4SM -SN BR BKN016 OVC030 M03/M04 A2972 RMK AO2 SNB41 SLP074 P0000 T10281044
KTOL 091929Z 22006KT 9SM OVC016 M02/M05 A2971 RMK AO2 T10221050
KTOL 091912Z AUTO 19007KT 8SM OVC014 M03/M05 A2971 RMK AO2 T10281050
KTOL 091852Z 21008KT 6SM BR BKN016 OVC020 M03/M05 A2971 RMK AO2 SNE34 SLP069 P0000 T10281050
KTOL 091752Z 20008KT 4SM -SN BR BKN014 BKN029 OVC039 M03/M04 A2971 RMK AO2 SLP071 P0000 60012 T10281044 11028 21050 58010
KTOL 091715Z 19006KT 1 3/4SM -SN BR BKN012 BKN023 OVC029 M03/M04 A2972 RMK AO2 P0000 T10331039
KTOL 091652Z 19006KT 1 1/4SM -SN BR BKN011 BKN020 OVC028 M03/M04 A2973 RMK AO2 SLP075 P0003 T10331044
KTOL 091640Z 20005KT 1 1/4SM -SN BR FEW009 BKN016 OVC032 M03/M04 A2973 RMK AO2 P0002 T10331044
KTOL 091631Z 20006KT 3/4SM -SN BR FEW009 BKN014 OVC034 M04/M04 A2973 RMK AO2 P0002 T10391044 RVRNO
KTOL 091605Z 18004KT 1/2SM SN FZFG VV013 M04/M04 A2974 RMK AO2 P0001 T10391044 RVRNO
KTOL 091552Z 20005KT 1/2SM SN FZFG FEW009 OVC015 M04/M05 A2975 RMK AO2 SLP082 P0003 T10391050 RVRNO
KTOL 091528Z 19006KT 3/4SM -SN BR FEW008 OVC015 M04/M05 A2974 RMK AO2 P0002 T10391050 RVRNO
KTOL 091524Z 18007KT 3/4SM -SN BR VV014 M04/M05 A2974 RMK AO2 P0002 T10391050 RVRNO
KTOL 091452Z 17006KT 3/4SM -SN BR BKN017 OVC024 M04/M05 A2974 RMK AO2 SLP081 P0002 60006 T10441050 56006 RVRNO
KTOL 091430Z 18007KT 3/4SM -SN BR VV019 M04/M06 A2974 RMK AO2 P0001 T10441056 RVRNO
KTOL 091401Z 16006KT 1SM -SN BR OVC021 M04/M06 A2975 RMK AO2 P0000 T10441056 RVRNO
KTOL 091352Z 16006KT 3/4SM -SN BR VV020 M04/M06 A2975 RMK AO2 SLP082 P0002 T10441056 RVRNO
KTOL 091318Z 16005KT 1SM -SN BR VV020 M05/M06 A2975 RMK AO2 P0001 T10501056 RVRNO
KTOL 091303Z 17004KT 3/4SM -SN BR VV017 M05/M06 A2975 RMK AO2 P0001 T10501056 RVRNO
KTOL 091252Z 17006KT 1SM -SN BR VV017 M05/M06 A2975 RMK AO2 SLP083 P0002 T10501061 RVRNO